Time;durP1;ratioP1;P1;durP2;ratioP2;P2;SDS_P1;SDS_P2;PMS_P1;PMS_P2;Temp;Humidity;BMP_temperature;BMP_pressure;BME280_temperature;BME280_humidity;BME280_pressure;Samples;Min_cycle;Max_cycle;Signal;HPM_P1;HPM_P2
2023/06/12 00:00:41;;;;;;;1.90;1.90;;;23.80;67.00;;;;;;5111491;27;43895;-69
2023/06/12 00:03:09;;;;;;;2.00;2.00;;;23.80;67.10;;;;;;5116704;27;43501;-69
2023/06/12 00:05:41;;;;;;;1.87;1.87;;;23.80;67.30;;;;;;5110682;27;43694;-69
2023/06/12 00:08:11;;;;;;;2.07;2.07;;;23.90;67.20;;;;;;5110074;27;43460;-68
2023/06/12 00:10:40;;;;;;;1.73;1.73;;;24.00;66.90;;;;;;5104082;28;43411;-68
2023/06/12 00:13:08;;;;;;;1.90;1.90;;;24.10;66.50;;;;;;5108601;28;43348;-68
2023/06/12 00:15:36;;;;;;;1.80;1.80;;;24.10;66.80;;;;;;5104847;28;43645;-68
2023/06/12 00:18:06;;;;;;;1.80;1.80;;;24.10;66.10;;;;;;5110644;28;43346;-68
2023/06/12 00:20:34;;;;;;;1.93;1.93;;;24.10;66.10;;;;;;5106305;28;44563;-68
2023/06/12 00:23:02;;;;;;;2.10;2.10;;;24.00;66.40;;;;;;5106881;28;43439;-68
2023/06/12 00:25:30;;;;;;;2.07;2.07;;;24.00;66.30;;;;;;5110538;27;43606;-68
2023/06/12 00:27:58;;;;;;;2.00;2.00;;;24.00;66.50;;;;;;5110445;27;44221;-68
2023/06/12 00:30:26;;;;;;;2.00;2.00;;;23.90;66.60;;;;;;5109830;28;43402;-68
2023/06/12 00:32:54;;;;;;;2.00;2.00;;;23.90;66.60;;;;;;5110779;27;43332;-68
2023/06/12 00:35:23;;;;;;;2.00;2.00;;;23.90;66.80;;;;;;5109632;27;43696;-68
2023/06/12 00:37:51;;;;;;;1.83;1.83;;;23.90;66.80;;;;;;5108247;28;43382;-68
2023/06/12 00:40:22;;;;;;;2.03;2.03;;;23.90;66.80;;;;;;5111283;28;43275;-68
2023/06/12 00:42:51;;;;;;;2.03;2.03;;;23.80;66.90;;;;;;5111071;28;43402;-68
2023/06/12 00:45:21;;;;;;;1.90;1.90;;;23.80;67.20;;;;;;5108202;28;45713;-68
2023/06/12 00:47:52;;;;;;;2.10;2.10;;;23.90;67.20;;;;;;5109931;27;43426;-68
2023/06/12 00:50:20;;;;;;;2.00;2.00;;;24.00;66.90;;;;;;5108484;27;43441;-68
2023/06/12 00:52:53;;;;;;;2.17;2.07;;;24.10;66.50;;;;;;5107952;27;43399;-68
2023/06/12 00:55:21;;;;;;;1.80;1.80;;;24.10;66.10;;;;;;5107642;28;43751;-68
2023/06/12 00:57:49;;;;;;;2.20;2.10;;;24.10;66.10;;;;;;5109911;27;43415;-68
2023/06/12 01:00:18;;;;;;;1.90;1.90;;;24.10;66.00;;;;;;5110427;27;43416;-68
2023/06/12 01:02:47;;;;;;;1.73;1.73;;;24.00;66.10;;;;;;5110799;27;43513;-68
2023/06/12 01:05:19;;;;;;;1.90;1.90;;;24.00;66.50;;;;;;5109625;27;43860;-68
2023/06/12 01:07:52;;;;;;;2.10;2.10;;;24.00;66.30;;;;;;5113390;27;43537;-68
2023/06/12 01:10:24;;;;;;;1.73;1.73;;;24.00;66.70;;;;;;5110042;27;43414;-68
2023/06/12 01:12:53;;;;;;;2.20;2.20;;;23.90;66.70;;;;;;5108829;27;43546;-67
2023/06/12 01:15:21;;;;;;;2.00;2.00;;;23.90;66.90;;;;;;5108509;28;43967;-67
2023/06/12 01:17:49;;;;;;;1.97;1.97;;;23.90;66.60;;;;;;5109064;27;43521;-67
2023/06/12 01:20:17;;;;;;;1.90;1.90;;;23.90;66.70;;;;;;5110285;27;43604;-67
2023/06/12 01:22:51;;;;;;;2.07;2.07;;;23.80;66.80;;;;;;5113477;27;43896;-68
2023/06/12 01:25:41;;;;;;;1.90;1.90;;;23.80;66.80;;;;;;5109387;27;44142;-68
2023/06/12 01:28:21;;;;;;;2.20;2.20;;;23.80;67.20;;;;;;5094775;28;43425;-68
2023/06/12 01:30:54;;;;;;;2.17;2.07;;;23.90;66.90;;;;;;5108382;28;43406;-68
2023/06/12 01:33:32;;;;;;;2.00;2.00;;;24.10;66.60;;;;;;5108807;27;43450;-68
2023/06/12 01:36:01;;;;;;;1.90;1.90;;;24.10;66.20;;;;;;5097234;28;46092;-67
2023/06/12 01:38:30;;;;;;;2.00;2.00;;;24.10;65.90;;;;;;5108412;28;43948;-68
2023/06/12 01:40:59;;;;;;;2.00;2.00;;;24.10;65.90;;;;;;5108296;28;43453;-67
2023/06/12 01:43:27;;;;;;;1.93;1.93;;;24.00;66.10;;;;;;5109880;27;43387;-68
2023/06/12 01:45:55;;;;;;;1.90;1.90;;;24.00;66.40;;;;;;5108378;28;44335;-67
2023/06/12 01:48:25;;;;;;;2.00;2.00;;;24.00;66.30;;;;;;5108304;28;43374;-67
2023/06/12 01:50:55;;;;;;;2.00;2.00;;;23.90;66.20;;;;;;5110489;27;43394;-68
2023/06/12 01:53:24;;;;;;;2.00;2.00;;;23.90;66.60;;;;;;5108644;28;43470;-68
2023/06/12 01:55:53;;;;;;;2.00;2.00;;;23.90;66.90;;;;;;5108861;27;43592;-68
2023/06/12 01:58:26;;;;;;;2.07;2.07;;;23.90;66.50;;;;;;5105493;27;43438;-68
2023/06/12 02:01:14;;;;;;;2.00;2.00;;;23.90;66.70;;;;;;5102710;27;43425;-67
2023/06/12 02:03:45;;;;;;;2.00;2.00;;;23.80;66.80;;;;;;5106428;27;43414;-68
2023/06/12 02:06:15;;;;;;;1.67;1.67;;;23.80;67.10;;;;;;5108991;27;43657;-67
2023/06/12 02:08:44;;;;;;;1.80;1.80;;;23.80;66.70;;;;;;5107450;28;44963;-67
2023/06/12 02:11:14;;;;;;;2.17;2.17;;;23.80;66.70;;;;;;5107590;28;43978;-67
2023/06/12 02:13:42;;;;;;;2.20;2.20;;;23.80;67.00;;;;;;5106258;28;43437;-67
2023/06/12 02:16:10;;;;;;;2.00;2.00;;;23.70;67.00;;;;;;5107868;28;45798;-69
2023/06/12 02:18:38;;;;;;;2.27;2.20;;;23.70;67.10;;;;;;5107730;28;44788;-68
2023/06/12 02:21:07;;;;;;;1.97;1.97;;;23.90;67.10;;;;;;5108093;28;43386;-68
2023/06/12 02:23:35;;;;;;;2.30;2.30;;;24.00;66.70;;;;;;5108302;28;44007;-68
2023/06/12 02:26:04;;;;;;;2.07;2.07;;;24.10;66.20;;;;;;5108330;28;44026;-69
2023/06/12 02:28:32;;;;;;;2.20;2.20;;;24.20;66.00;;;;;;5108248;27;43482;-69
2023/06/12 02:31:00;;;;;;;2.00;2.00;;;24.20;65.60;;;;;;5107532;28;43438;-69
2023/06/12 02:33:33;;;;;;;2.23;2.23;;;24.10;65.50;;;;;;5108196;28;43467;-68
2023/06/12 02:36:01;;;;;;;2.07;2.07;;;24.10;65.50;;;;;;5107622;28;44621;-68
2023/06/12 02:38:31;;;;;;;1.80;1.80;;;24.00;66.10;;;;;;5108127;27;43674;-68
2023/06/12 02:40:59;;;;;;;2.07;2.07;;;23.90;66.40;;;;;;5107519;28;43361;-68
2023/06/12 02:43:27;;;;;;;1.93;1.93;;;23.90;66.70;;;;;;5108192;28;43588;-68
2023/06/12 02:45:55;;;;;;;2.00;2.00;;;23.80;66.70;;;;;;5107050;28;46238;-68
2023/06/12 02:48:27;;;;;;;2.37;2.37;;;23.80;67.00;;;;;;5107745;28;43402;-68
2023/06/12 02:50:54;;;;;;;2.10;2.10;;;23.70;67.00;;;;;;5107155;28;43361;-68
2023/06/12 02:53:22;;;;;;;2.10;2.10;;;23.80;67.20;;;;;;5108487;27;43431;-68
2023/06/12 02:55:52;;;;;;;1.90;1.90;;;23.90;67.00;;;;;;5106434;27;45751;-68
2023/06/12 02:58:20;;;;;;;2.07;2.07;;;24.00;66.50;;;;;;5108089;27;43401;-68
2023/06/12 03:00:48;;;;;;;1.93;1.93;;;24.20;66.00;;;;;;5106637;28;43424;-68
2023/06/12 03:03:16;;;;;;;2.00;2.00;;;24.40;65.30;;;;;;5107194;28;43586;-68
2023/06/12 03:05:44;;;;;;;2.10;2.10;;;24.60;64.80;;;;;;5107888;27;43800;-68
2023/06/12 03:08:13;;;;;;;2.10;2.10;;;24.80;64.10;;;;;;5107211;27;43359;-68
2023/06/12 03:10:41;;;;;;;1.80;1.80;;;25.00;63.60;;;;;;5106756;27;43362;-69
2023/06/12 03:13:12;;;;;;;2.00;2.00;;;25.10;63.10;;;;;;5107793;28;43529;-69
2023/06/12 03:15:40;;;;;;;2.13;2.13;;;25.20;62.70;;;;;;5105757;27;44683;-69
2023/06/12 03:18:08;;;;;;;1.90;1.90;;;25.30;62.50;;;;;;5106848;28;43509;-69
2023/06/12 03:20:36;;;;;;;2.00;2.00;;;25.30;62.40;;;;;;5106138;28;43399;-69
2023/06/12 03:23:05;;;;;;;2.05;2.05;;;25.20;62.70;;;;;;5108353;27;43454;-68
2023/06/12 03:25:33;;;;;;;2.20;2.20;;;25.00;62.90;;;;;;5104523;28;45752;-68
2023/06/12 03:28:01;;;;;;;1.93;1.93;;;24.90;63.40;;;;;;5088082;28;45008;-69
2023/06/12 03:30:30;;;;;;;2.13;2.13;;;24.80;63.70;;;;;;5106056;28;43434;-69
2023/06/12 03:32:58;;;;;;;2.00;2.00;;;24.70;63.80;;;;;;5105279;28;43546;-68
2023/06/12 03:35:29;;;;;;;2.27;2.27;;;24.60;64.00;;;;;;5102810;28;45806;-68
2023/06/12 03:37:57;;;;;;;2.20;2.20;;;24.50;64.30;;;;;;5106745;28;43840;-68
2023/06/12 03:40:25;;;;;;;2.30;2.30;;;24.40;64.90;;;;;;5108266;28;43401;-69
2023/06/12 03:42:53;;;;;;;2.00;2.00;;;24.40;64.90;;;;;;5106652;28;43449;-69
2023/06/12 03:45:21;;;;;;;1.93;1.93;;;24.30;64.80;;;;;;5106576;28;45743;-69
2023/06/12 03:47:52;;;;;;;2.20;2.20;;;24.20;64.80;;;;;;5106178;28;43653;-69
2023/06/12 03:50:22;;;;;;;2.40;2.40;;;24.10;65.60;;;;;;5106545;28;43410;-69
2023/06/12 03:52:50;;;;;;;2.10;2.10;;;24.20;65.60;;;;;;5111820;27;43533;-69
2023/06/12 03:55:21;;;;;;;1.90;1.90;;;24.30;65.30;;;;;;5106444;27;43839;-69
2023/06/12 03:57:50;;;;;;;2.20;2.10;;;24.40;64.90;;;;;;5109927;27;44057;-69
2023/06/12 04:00:19;;;;;;;2.10;2.10;;;24.40;64.50;;;;;;5107613;27;43411;-68
2023/06/12 04:02:47;;;;;;;2.17;2.17;;;24.40;64.10;;;;;;5105020;27;43399;-68
2023/06/12 04:05:22;;;;;;;2.10;2.10;;;24.30;63.30;;;;;;5106370;28;44018;-68
2023/06/12 04:07:50;;;;;;;2.23;2.23;;;24.20;63.90;;;;;;5106910;27;43342;-68
2023/06/12 04:10:19;;;;;;;2.30;2.17;;;24.20;64.20;;;;;;5105523;27;43419;-68
2023/06/12 04:12:47;;;;;;;2.20;2.20;;;24.10;63.80;;;;;;5108050;27;43390;-69
2023/06/12 04:15:15;;;;;;;2.40;2.40;;;24.10;63.10;;;;;;5107027;28;45687;-69
2023/06/12 04:17:43;;;;;;;2.13;2.13;;;24.00;64.60;;;;;;5107672;27;43432;-68
2023/06/12 04:20:13;;;;;;;2.20;2.20;;;24.00;64.30;;;;;;5105899;28;43491;-68
2023/06/12 04:22:42;;;;;;;2.20;2.20;;;24.00;63.60;;;;;;5106476;28;43458;-68
2023/06/12 04:25:10;;;;;;;2.60;2.50;;;23.90;62.80;;;;;;5106198;28;44606;-69
2023/06/12 04:27:40;;;;;;;3.63;2.60;;;23.90;65.40;;;;;;5108656;27;43487;-69
2023/06/12 04:30:09;;;;;;;2.60;2.60;;;23.90;65.40;;;;;;5110488;27;43477;-69
2023/06/12 04:32:38;;;;;;;2.30;2.30;;;24.00;65.10;;;;;;5109885;27;43588;-68
2023/06/12 04:35:10;;;;;;;2.60;2.50;;;24.10;64.90;;;;;;5108876;28;45740;-68
2023/06/12 04:37:38;;;;;;;2.57;2.57;;;24.20;64.20;;;;;;5108801;28;43440;-68
2023/06/12 04:40:11;;;;;;;2.37;2.37;;;24.30;64.40;;;;;;5110403;27;43397;-68
2023/06/12 04:42:41;;;;;;;2.13;2.13;;;24.30;63.40;;;;;;5110355;28;43755;-69
2023/06/12 04:45:12;;;;;;;2.77;2.57;;;24.20;63.10;;;;;;5110987;27;43562;-68
2023/06/12 04:47:42;;;;;;;2.47;2.47;;;24.10;64.30;;;;;;5110512;27;43453;-68
2023/06/12 04:50:10;;;;;;;2.40;2.40;;;24.10;64.50;;;;;;5110427;28;43426;-68
2023/06/12 04:52:40;;;;;;;2.70;2.70;;;24.00;64.30;;;;;;5110512;27;43430;-68
2023/06/12 04:55:11;;;;;;;2.60;2.60;;;24.00;63.90;;;;;;5109932;28;45981;-68
2023/06/12 04:57:43;;;;;;;2.67;2.57;;;23.90;65.00;;;;;;5109522;28;44902;-67
2023/06/12 05:00:15;;;;;;;2.93;2.80;;;23.90;64.60;;;;;;5104879;28;43358;-67
2023/06/12 05:02:46;;;;;;;2.70;2.70;;;23.90;63.60;;;;;;5100650;28;43479;-67
2023/06/12 05:05:14;;;;;;;2.90;2.90;;;23.90;63.30;;;;;;5109184;28;45586;-67
2023/06/12 05:07:45;;;;;;;2.87;2.87;;;23.80;64.80;;;;;;5109049;28;44905;-67
2023/06/12 05:10:15;;;;;;;2.70;2.60;;;23.80;65.00;;;;;;5109413;28;43425;-67
2023/06/12 05:12:43;;;;;;;2.80;2.77;;;23.90;65.00;;;;;;5111245;27;43390;-68
2023/06/12 05:15:11;;;;;;;3.23;3.13;;;24.00;64.80;;;;;;5109132;28;45945;-67
2023/06/12 05:17:39;;;;;;;2.70;2.70;;;24.10;64.10;;;;;;5109310;28;44388;-69
2023/06/12 05:20:09;;;;;;;2.90;2.80;;;24.10;63.60;;;;;;5108493;28;43437;-69
2023/06/12 05:22:38;;;;;;;2.80;2.70;;;24.10;63.60;;;;;;5109634;28;43532;-69
2023/06/12 05:25:07;;;;;;;2.70;2.60;;;24.00;63.50;;;;;;5109320;28;45857;-69
2023/06/12 05:27:36;;;;;;;2.80;2.70;;;24.00;64.60;;;;;;5127561;27;44970;-68
2023/06/12 05:30:09;;;;;;;2.70;2.70;;;24.00;64.50;;;;;;5109935;27;43524;-68
2023/06/12 05:32:38;;;;;;;2.83;2.73;;;23.90;64.00;;;;;;5110093;28;43415;-68
2023/06/12 05:35:07;;;;;;;3.20;3.10;;;23.90;64.20;;;;;;5108017;28;45080;-68
2023/06/12 05:37:35;;;;;;;2.73;2.73;;;23.90;65.20;;;;;;5108975;28;44824;-68
2023/06/12 05:40:05;;;;;;;2.53;2.53;;;23.80;65.00;;;;;;5108364;27;43351;-68
2023/06/12 05:42:33;;;;;;;2.50;2.50;;;23.80;65.00;;;;;;5108826;28;43527;-68
2023/06/12 05:45:03;;;;;;;3.20;3.10;;;23.80;65.30;;;;;;5114217;27;43933;-68
2023/06/12 05:47:33;;;;;;;3.03;2.93;;;23.80;65.50;;;;;;5108369;27;44297;-68
2023/06/12 05:50:04;;;;;;;2.90;2.90;;;23.80;65.40;;;;;;5103534;28;43347;-67
2023/06/12 05:52:32;;;;;;;2.80;2.80;;;23.80;65.20;;;;;;5108787;28;43498;-68
2023/06/12 05:55:00;;;;;;;3.23;3.13;;;23.90;65.10;;;;;;5107752;27;45487;-67
2023/06/12 05:57:31;;;;;;;2.90;2.90;;;24.00;64.50;;;;;;5108247;28;43745;-68
2023/06/12 06:00:00;;;;;;;2.90;2.80;;;24.10;63.90;;;;;;5108105;28;43461;-68
2023/06/12 06:02:32;;;;;;;3.10;3.00;;;24.10;63.90;;;;;;5106980;28;43462;-68
2023/06/12 06:05:01;;;;;;;3.30;3.20;;;24.00;63.30;;;;;;5107924;28;45740;-67
2023/06/12 06:07:32;;;;;;;3.10;3.00;;;24.00;64.60;;;;;;5108020;27;43374;-67
2023/06/12 06:10:00;;;;;;;2.60;2.60;;;23.90;64.60;;;;;;5108974;27;43390;-69
2023/06/12 06:12:29;;;;;;;2.80;2.73;;;23.90;64.60;;;;;;5108651;28;43511;-68
2023/06/12 06:14:59;;;;;;;2.90;2.80;;;23.90;64.60;;;;;;5107859;28;44759;-68
2023/06/12 06:17:27;;;;;;;2.80;2.80;;;23.80;65.30;;;;;;5107724;28;43430;-68
2023/06/12 06:19:58;;;;;;;2.80;2.80;;;23.80;65.00;;;;;;5108132;27;43410;-67
2023/06/12 06:22:26;;;;;;;2.77;2.67;;;23.80;65.80;;;;;;5109653;27;43370;-68
2023/06/12 06:24:54;;;;;;;2.80;2.80;;;23.80;65.10;;;;;;5106743;28;45716;-67
2023/06/12 06:27:22;;;;;;;2.83;2.83;;;23.70;65.50;;;;;;5108914;27;43338;-68
2023/06/12 06:29:51;;;;;;;3.10;3.00;;;23.70;65.50;;;;;;5107825;28;43440;-67
2023/06/12 06:32:19;;;;;;;3.00;3.00;;;23.70;65.50;;;;;;5109786;27;44015;-67
2023/06/12 06:34:47;;;;;;;2.97;2.93;;;23.80;65.10;;;;;;5108253;27;43810;-69
2023/06/12 06:37:17;;;;;;;3.00;2.90;;;23.90;64.70;;;;;;5108758;27;43434;-69
2023/06/12 06:39:46;;;;;;;3.20;3.10;;;24.00;63.70;;;;;;5109409;27;44452;-69
2023/06/12 06:42:14;;;;;;;2.87;2.87;;;24.10;63.70;;;;;;5108606;27;43489;-69
2023/06/12 06:44:51;;;;;;;2.83;2.83;;;24.00;63.40;;;;;;5107084;28;43995;-69
2023/06/12 06:47:23;;;;;;;3.00;2.90;;;24.00;63.50;;;;;;5108086;28;44980;-68
2023/06/12 06:49:51;;;;;;;2.93;2.90;;;23.90;64.20;;;;;;5107554;27;43398;-69
2023/06/12 06:52:22;;;;;;;3.30;3.20;;;23.90;64.50;;;;;;5108168;27;43391;-68
2023/06/12 06:54:51;;;;;;;3.10;3.00;;;23.90;65.10;;;;;;5107305;28;46161;-68
2023/06/12 06:57:19;;;;;;;2.90;2.90;;;23.80;64.40;;;;;;5108332;27;43427;-68
2023/06/12 06:59:47;;;;;;;2.60;2.60;;;23.80;65.10;;;;;;5107146;28;43383;-68
2023/06/12 07:02:15;;;;;;;3.03;2.93;;;23.70;65.10;;;;;;5106450;28;43610;-68
2023/06/12 07:04:45;;;;;;;3.20;3.10;;;23.70;65.20;;;;;;5104726;28;43825;-68
2023/06/12 07:07:15;;;;;;;3.40;3.30;;;23.70;65.30;;;;;;5106811;28;43612;-68
2023/06/12 07:09:44;;;;;;;2.97;2.97;;;23.70;65.80;;;;;;5105525;28;43421;-68
2023/06/12 07:12:12;;;;;;;3.07;2.97;;;23.60;65.70;;;;;;5108433;27;43400;-68
2023/06/12 07:14:41;;;;;;;3.03;2.87;;;23.70;65.90;;;;;;5104554;28;46064;-68
2023/06/12 07:17:09;;;;;;;2.90;2.80;;;23.70;65.80;;;;;;5107675;27;43370;-68
2023/06/12 07:19:37;;;;;;;2.90;2.90;;;23.70;66.20;;;;;;5107528;28;43933;-68
2023/06/12 07:22:06;;;;;;;3.10;3.00;;;23.60;66.20;;;;;;5107655;28;43577;-68
2023/06/12 07:24:34;;;;;;;3.30;3.20;;;23.60;66.10;;;;;;5106680;28;45925;-69
2023/06/12 07:27:04;;;;;;;2.90;2.90;;;23.70;65.90;;;;;;5108635;27;43500;-68
2023/06/12 07:29:32;;;;;;;2.97;2.90;;;23.90;65.60;;;;;;5106831;28;43465;-68
2023/06/12 07:32:01;;;;;;;2.80;2.80;;;24.00;65.10;;;;;;5107128;28;43447;-68
2023/06/12 07:34:29;;;;;;;2.83;2.83;;;24.10;64.70;;;;;;5105922;28;45941;-68
2023/06/12 07:36:58;;;;;;;3.07;2.97;;;24.10;64.50;;;;;;5106452;27;44935;-68
2023/06/12 07:39:26;;;;;;;2.77;2.77;;;24.00;64.50;;;;;;5106368;28;43415;-68
2023/06/12 07:41:55;;;;;;;3.10;3.00;;;24.00;65.20;;;;;;5106996;28;43445;-68
2023/06/12 07:44:24;;;;;;;2.97;2.97;;;23.90;65.10;;;;;;5106031;27;45375;-69
2023/06/12 07:46:53;;;;;;;2.97;2.90;;;23.90;65.30;;;;;;5106163;28;45082;-69
2023/06/12 07:49:22;;;;;;;3.23;3.03;;;23.80;65.20;;;;;;5090620;28;43449;-69
2023/06/12 07:51:50;;;;;;;2.80;2.80;;;23.80;65.80;;;;;;5106694;27;43467;-69
2023/06/12 07:54:21;;;;;;;3.20;3.10;;;23.70;65.80;;;;;;5105947;28;43928;-69
2023/06/12 07:56:51;;;;;;;2.80;2.80;;;23.70;65.80;;;;;;5103484;28;43954;-68
2023/06/12 07:59:21;;;;;;;2.70;2.70;;;23.70;65.80;;;;;;5106519;28;43397;-69
2023/06/12 08:01:55;;;;;;;2.80;2.70;;;23.70;66.00;;;;;;5107319;27;43443;-68
2023/06/12 08:04:23;;;;;;;2.83;2.83;;;23.70;66.30;;;;;;5114302;27;45711;-69
2023/06/12 08:06:54;;;;;;;3.00;2.90;;;23.60;66.20;;;;;;5109760;28;44876;-68
2023/06/12 08:09:24;;;;;;;2.90;2.80;;;23.70;66.10;;;;;;5109656;28;43482;-68
2023/06/12 08:11:52;;;;;;;3.00;2.90;;;23.60;66.30;;;;;;5111690;27;43409;-68
2023/06/12 08:14:21;;;;;;;3.10;3.10;;;23.60;66.40;;;;;;5109721;28;45862;-68
2023/06/12 08:16:50;;;;;;;2.53;2.53;;;23.60;66.50;;;;;;5110273;27;44468;-68
2023/06/12 08:19:21;;;;;;;2.90;2.80;;;23.70;66.30;;;;;;5109422;28;43447;-68
2023/06/12 08:21:49;;;;;;;2.93;2.93;;;23.80;66.00;;;;;;5110217;28;43925;-67
2023/06/12 08:24:18;;;;;;;2.70;2.70;;;23.90;65.20;;;;;;5109864;28;43802;-67
2023/06/12 08:26:46;;;;;;;3.10;3.10;;;24.00;64.50;;;;;;5110301;28;44255;-68
2023/06/12 08:29:14;;;;;;;2.70;2.70;;;24.00;64.30;;;;;;5110501;27;43453;-67
2023/06/12 08:31:43;;;;;;;2.60;2.60;;;23.90;64.60;;;;;;5109171;28;43478;-67
2023/06/12 08:34:11;;;;;;;2.90;2.80;;;23.90;65.60;;;;;;5104246;27;43978;-68
2023/06/12 08:36:40;;;;;;;2.70;2.60;;;23.90;65.60;;;;;;5099625;28;43451;-68
2023/06/12 08:39:09;;;;;;;2.73;2.73;;;23.80;65.60;;;;;;5102679;28;43398;-67
2023/06/12 08:41:39;;;;;;;2.90;2.90;;;23.70;65.60;;;;;;5100427;28;43460;-68
2023/06/12 08:44:07;;;;;;;2.90;2.80;;;23.70;66.10;;;;;;5104056;28;43603;-68
2023/06/12 08:46:40;;;;;;;2.70;2.70;;;23.70;66.10;;;;;;5100410;28;43768;-67
2023/06/12 08:49:09;;;;;;;2.63;2.63;;;23.70;66.30;;;;;;5098415;28;43435;-68
2023/06/12 08:51:42;;;;;;;2.83;2.83;;;23.70;66.40;;;;;;5104759;27;43428;-69
2023/06/12 08:54:10;;;;;;;3.10;3.00;;;23.60;66.70;;;;;;5100710;28;43790;-69
2023/06/12 08:56:38;;;;;;;2.47;2.43;;;23.60;66.70;;;;;;5104212;28;43468;-67
2023/06/12 08:59:06;;;;;;;2.67;2.67;;;23.70;66.60;;;;;;5102305;27;43375;-68
2023/06/12 09:01:34;;;;;;;3.17;3.07;;;23.80;66.10;;;;;;5101766;27;43438;-68
2023/06/12 09:04:02;;;;;;;2.40;2.40;;;23.90;65.90;;;;;;5103300;27;43673;-68
2023/06/12 09:06:30;;;;;;;2.60;2.60;;;23.90;65.90;;;;;;5101377;28;43349;-67
2023/06/12 09:09:00;;;;;;;2.70;2.60;;;23.90;65.80;;;;;;5104492;28;43711;-67
2023/06/12 09:11:31;;;;;;;2.80;2.70;;;23.80;65.90;;;;;;5102210;28;43460;-67
2023/06/12 09:14:00;;;;;;;2.90;2.90;;;23.70;66.30;;;;;;5100129;27;43672;-67
2023/06/12 09:16:28;;;;;;;2.60;2.60;;;23.70;66.30;;;;;;5102590;28;43458;-68
2023/06/12 09:18:57;;;;;;;2.63;2.63;;;23.70;66.50;;;;;;5099442;28;43472;-67
2023/06/12 09:21:25;;;;;;;2.50;2.50;;;23.70;66.50;;;;;;5110051;28;43358;-68
2023/06/12 09:23:55;;;;;;;2.60;2.60;;;23.60;66.90;;;;;;5103582;27;43626;-68
2023/06/12 09:26:24;;;;;;;2.77;2.77;;;23.60;66.90;;;;;;5102678;28;43458;-68
2023/06/12 09:28:52;;;;;;;2.77;2.77;;;23.60;66.90;;;;;;5102705;27;43429;-68
2023/06/12 09:31:20;;;;;;;2.47;2.47;;;23.60;66.80;;;;;;5103040;28;43452;-67
2023/06/12 09:33:50;;;;;;;2.50;2.50;;;23.50;66.90;;;;;;5102704;28;43850;-68
2023/06/12 09:36:20;;;;;;;2.33;2.33;;;23.50;67.20;;;;;;5100079;28;43497;-69
2023/06/12 09:38:48;;;;;;;2.87;2.87;;;23.60;67.10;;;;;;5104828;28;43401;-67
2023/06/12 09:41:18;;;;;;;2.60;2.60;;;23.70;66.80;;;;;;5104943;28;43336;-68
2023/06/12 09:43:48;;;;;;;2.53;2.53;;;23.80;66.40;;;;;;5101732;28;43574;-69
2023/06/12 09:46:16;;;;;;;2.50;2.50;;;23.90;66.20;;;;;;5107283;28;43406;-68
2023/06/12 09:48:45;;;;;;;2.57;2.57;;;23.90;66.10;;;;;;5109266;27;43416;-68
2023/06/12 09:51:13;;;;;;;2.50;2.50;;;23.90;66.20;;;;;;5109576;27;43282;-68
2023/06/12 09:53:41;;;;;;;2.50;2.50;;;23.80;66.60;;;;;;5107620;27;43591;-69
2023/06/12 09:56:09;;;;;;;2.50;2.50;;;23.70;66.60;;;;;;5108668;27;43410;-68
2023/06/12 09:58:38;;;;;;;2.37;2.37;;;23.70;66.60;;;;;;5105535;27;43953;-68
2023/06/12 10:01:08;;;;;;;2.47;2.47;;;23.70;66.70;;;;;;5105178;27;43576;-68
2023/06/12 10:03:38;;;;;;;2.47;2.47;;;23.60;66.70;;;;;;5101113;27;43649;-68
2023/06/12 10:06:07;;;;;;;2.50;2.50;;;23.60;67.10;;;;;;5106075;28;43475;-69
2023/06/12 10:08:35;;;;;;;2.37;2.37;;;23.60;67.10;;;;;;5106248;27;43434;-69
2023/06/12 10:11:03;;;;;;;2.27;2.27;;;23.60;67.20;;;;;;5108890;28;43430;-69
2023/06/12 10:13:32;;;;;;;2.10;2.10;;;23.50;66.90;;;;;;5108663;27;43603;-68
2023/06/12 10:16:00;;;;;;;2.40;2.40;;;23.50;67.40;;;;;;5107919;27;43429;-69
2023/06/12 10:18:29;;;;;;;2.30;2.30;;;23.50;67.40;;;;;;5109153;27;43400;-69
2023/06/12 10:20:57;;;;;;;2.13;2.10;;;23.60;67.30;;;;;;5108858;27;43363;-69
2023/06/12 10:23:25;;;;;;;2.47;2.47;;;23.70;67.00;;;;;;5108289;27;43605;-69
2023/06/12 10:25:53;;;;;;;2.50;2.50;;;23.80;66.60;;;;;;5103907;27;43352;-69
2023/06/12 10:28:21;;;;;;;2.40;2.30;;;23.90;66.50;;;;;;5107953;27;43382;-69
2023/06/12 10:31:12;;;;;;;2.50;2.50;;;23.80;66.30;;;;;;5109149;27;43458;-69
2023/06/12 10:33:57;;;;;;;2.70;2.60;;;23.80;66.50;;;;;;5108627;27;43858;-68
2023/06/12 10:36:25;;;;;;;2.50;2.50;;;23.70;66.90;;;;;;5108157;27;43354;-69
2023/06/12 10:39:01;;;;;;;2.50;2.50;;;23.70;67.00;;;;;;5107787;27;43405;-68
2023/06/12 10:41:32;;;;;;;2.40;2.40;;;23.70;67.00;;;;;;5108485;27;43482;-68
2023/06/12 10:44:00;;;;;;;2.20;2.20;;;23.60;66.90;;;;;;5104998;28;43765;-68
2023/06/12 10:46:44;;;;;;;2.17;2.07;;;23.60;67.40;;;;;;5108293;28;43398;-68
2023/06/12 10:49:14;;;;;;;2.30;2.30;;;23.60;67.50;;;;;;5106902;28;43400;-68
2023/06/12 10:51:48;;;;;;;2.40;2.40;;;23.60;67.50;;;;;;5108832;28;43464;-68
2023/06/12 10:54:16;;;;;;;2.30;2.30;;;23.50;67.00;;;;;;5107883;27;43587;-68
2023/06/12 10:57:01;;;;;;;2.50;2.50;;;23.50;67.60;;;;;;5107285;28;43316;-68
2023/06/12 10:59:34;;;;;;;2.30;2.30;;;23.50;67.60;;;;;;5109225;27;43442;-68
2023/06/12 11:02:03;;;;;;;2.50;2.40;;;23.50;67.60;;;;;;5108153;27;43406;-68
2023/06/12 11:04:37;;;;;;;2.30;2.30;;;23.50;67.40;;;;;;5103213;27;43836;-67
2023/06/12 11:07:06;;;;;;;2.37;2.37;;;23.50;67.70;;;;;;5104996;27;43417;-68
2023/06/12 11:09:39;;;;;;;2.20;2.20;;;23.50;67.90;;;;;;5106156;27;43411;-68
2023/06/12 11:12:08;;;;;;;2.43;2.43;;;23.50;67.60;;;;;;5108281;27;43442;-68
2023/06/12 11:14:36;;;;;;;2.30;2.30;;;23.60;67.20;;;;;;5107801;28;43528;-68
2023/06/12 11:17:05;;;;;;;2.10;2.10;;;23.70;66.70;;;;;;5107496;28;43328;-69
2023/06/12 11:19:33;;;;;;;2.10;2.10;;;23.80;66.60;;;;;;5107123;27;43441;-68
2023/06/12 11:22:04;;;;;;;2.20;2.20;;;23.80;66.50;;;;;;5107325;27;43390;-68
2023/06/12 11:24:32;;;;;;;2.10;2.10;;;23.80;66.70;;;;;;5108285;27;43603;-68
2023/06/12 11:27:01;;;;;;;2.13;2.13;;;23.70;67.00;;;;;;5106486;27;43442;-68
2023/06/12 11:29:29;;;;;;;2.00;2.00;;;23.60;67.10;;;;;;5107122;28;43697;-68
2023/06/12 11:32:00;;;;;;;2.37;2.37;;;23.60;67.20;;;;;;5107398;27;43419;-68
2023/06/12 11:34:33;;;;;;;2.13;2.13;;;23.60;67.20;;;;;;5106630;27;43847;-68
2023/06/12 11:37:14;;;;;;;2.30;2.30;;;23.60;67.30;;;;;;5106911;27;43386;-68
2023/06/12 11:39:43;;;;;;;2.10;2.10;;;23.50;67.50;;;;;;5101751;27;43397;-67
2023/06/12 11:42:14;;;;;;;2.17;2.17;;;23.50;67.50;;;;;;5102340;28;43391;-68
2023/06/12 11:44:42;;;;;;;2.30;2.30;;;23.50;67.50;;;;;;5107824;27;43608;-67
2023/06/12 11:47:10;;;;;;;2.10;2.10;;;23.50;67.40;;;;;;5107341;27;43769;-67
2023/06/12 11:49:41;;;;;;;2.00;2.00;;;23.50;67.80;;;;;;5107001;27;43392;-67
2023/06/12 11:52:09;;;;;;;2.20;2.20;;;23.50;67.70;;;;;;5107691;27;43423;-68
2023/06/12 11:55:00;;;;;;;2.20;2.20;;;23.60;67.30;;;;;;5106287;27;43835;-68
2023/06/12 11:57:31;;;;;;;2.40;2.40;;;23.70;66.90;;;;;;5105202;28;44737;-68
2023/06/12 11:59:59;;;;;;;2.50;2.40;;;23.80;66.70;;;;;;5106615;27;43444;-68
2023/06/12 12:02:29;;;;;;;3.33;2.37;;;23.80;66.60;;;;;;5104277;27;43338;-68
2023/06/12 12:04:59;;;;;;;2.70;2.50;;;23.80;66.70;;;;;;5104565;28;43761;-67
2023/06/12 12:07:31;;;;;;;2.90;2.80;;;23.70;66.90;;;;;;5105405;28;44632;-68
2023/06/12 12:10:07;;;;;;;2.77;2.67;;;23.70;67.20;;;;;;5104431;28;43413;-67
2023/06/12 12:12:43;;;;;;;2.90;2.80;;;23.60;67.20;;;;;;5101483;28;43419;-69
2023/06/12 12:15:12;;;;;;;2.50;2.40;;;23.60;67.20;;;;;;5106125;27;43844;-68
2023/06/12 12:17:40;;;;;;;2.77;2.67;;;23.60;67.30;;;;;;5105449;28;43425;-68
2023/06/12 12:20:13;;;;;;;2.50;2.50;;;23.50;67.60;;;;;;5099639;27;43392;-68
2023/06/12 12:22:44;;;;;;;2.70;2.60;;;23.50;67.70;;;;;;5110805;27;43421;-68
2023/06/12 12:25:16;;;;;;;2.80;2.70;;;23.50;67.60;;;;;;5105510;28;43738;-68
2023/06/12 12:27:45;;;;;;;3.00;2.80;;;23.50;67.50;;;;;;5104777;27;43363;-68
2023/06/12 12:30:15;;;;;;;2.87;2.77;;;23.50;68.00;;;;;;5103336;28;43396;-68
2023/06/12 12:32:44;;;;;;;3.10;2.90;;;23.50;67.90;;;;;;5105975;27;43914;-68
2023/06/12 12:35:13;;;;;;;3.07;2.80;;;23.60;67.70;;;;;;5107004;27;43622;-68
2023/06/12 12:37:41;;;;;;;2.80;2.67;;;23.70;67.30;;;;;;5108354;27;43426;-68
2023/06/12 12:40:10;;;;;;;2.60;2.50;;;23.70;67.70;;;;;;5101632;27;43351;-68
2023/06/12 12:42:41;;;;;;;2.90;2.70;;;23.80;66.80;;;;;;5098278;28;43419;-69
2023/06/12 12:45:10;;;;;;;3.13;2.90;;;23.80;66.90;;;;;;5106392;28;43729;-69
2023/06/12 12:47:40;;;;;;;2.80;2.70;;;23.70;66.90;;;;;;5099993;27;43352;-69
2023/06/12 12:50:09;;;;;;;3.27;3.07;;;23.70;67.30;;;;;;5108537;27;43379;-69
2023/06/12 12:52:48;;;;;;;2.63;2.33;;;23.70;67.40;;;;;;5108929;28;43398;-68
2023/06/12 12:55:17;;;;;;;3.20;3.10;;;23.60;67.20;;;;;;5109641;27;43711;-68
2023/06/12 12:57:47;;;;;;;2.77;2.67;;;23.60;67.20;;;;;;5108933;27;43405;-68
2023/06/12 13:00:17;;;;;;;5.03;2.70;;;23.60;67.80;;;;;;5109178;27;43462;-68